createdAt,value
2023-01-11T00:05:21.448Z,0.87
2023-01-11T00:15:22.911Z,0.67
2023-01-11T00:25:24.638Z,0.82
2023-01-11T00:35:27.627Z,0.77
2023-01-11T00:45:29.396Z,1.13
2023-01-11T00:55:31.596Z,1.13
2023-01-11T01:05:33.051Z,1.23
2023-01-11T01:15:34.608Z,1.25
2023-01-11T01:25:37.356Z,0.90
2023-01-11T01:35:38.798Z,1.00
2023-01-11T01:45:40.338Z,0.77
2023-01-11T01:55:48.676Z,0.53
2023-01-11T02:05:52.018Z,0.70
2023-01-11T02:15:55.817Z,0.60
2023-01-11T02:26:35.799Z,1.00
2023-01-11T02:37:04.284Z,0.35
2023-01-11T02:47:11.579Z,0.20
2023-01-11T02:57:15.170Z,0.10
2023-01-11T03:07:41.543Z,0.25
2023-01-11T03:18:13.472Z,0.20
2023-01-11T03:28:51.781Z,0.10
2023-01-11T03:39:09.923Z,0.30
2023-01-11T03:49:17.625Z,0.20
2023-01-11T03:59:19.464Z,0.10
2023-01-11T04:09:20.937Z,0.20
2023-01-11T04:19:22.531Z,0.50
2023-01-11T04:29:23.994Z,0.30
2023-01-11T04:39:25.458Z,0.20
2023-01-11T04:49:26.945Z,0.20
2023-01-11T04:59:28.409Z,0.22
2023-01-11T05:09:29.962Z,0.20
2023-01-11T05:19:31.552Z,0.40
2023-01-11T05:29:33.115Z,1.05
2023-01-11T05:39:34.661Z,1.40
2023-01-11T05:49:36.231Z,0.57
2023-01-11T05:59:37.798Z,0.57
2023-01-11T06:09:39.347Z,0.53
2023-01-11T06:19:40.896Z,0.90
2023-01-11T06:29:42.492Z,0.40
2023-01-11T06:39:44.003Z,0.43
2023-01-11T06:49:45.505Z,0.93
2023-01-11T06:59:47.000Z,1.80
2023-01-11T07:09:48.516Z,1.57
2023-01-11T07:19:50.055Z,1.33
2023-01-11T07:29:51.629Z,1.60
2023-01-11T07:39:53.277Z,0.63
2023-01-11T07:49:54.872Z,1.17
2023-01-11T07:59:56.382Z,1.13
2023-01-11T08:09:57.960Z,1.45
2023-01-11T08:19:59.488Z,1.20
2023-01-11T08:30:01.039Z,1.40
2023-01-11T08:40:02.876Z,1.13
2023-01-11T08:50:05.367Z,1.47
2023-01-11T09:00:08.261Z,1.90
2023-01-11T09:10:28.264Z,2.03
2023-01-11T09:20:29.806Z,1.53
2023-01-11T09:30:31.436Z,1.60
2023-01-11T09:40:52.018Z,0.77
2023-01-11T09:50:53.585Z,1.47
2023-01-11T10:01:10.412Z,1.15
2023-01-11T10:22:22.249Z,0.90
2023-01-11T10:32:36.674Z,0.90
2023-01-11T10:42:53.059Z,1.50
2023-01-11T10:53:07.553Z,1.63
2023-01-11T11:03:33.276Z,3.10
2023-01-11T11:13:55.045Z,2.78
2023-01-11T11:24:07.031Z,2.50
2023-01-11T11:34:17.968Z,2.93
2023-01-11T11:44:28.231Z,3.40
2023-01-11T11:54:42.814Z,3.50
2023-01-11T12:04:47.141Z,3.47
2023-01-11T12:15:15.628Z,3.40
2023-01-11T12:25:17.107Z,3.80
2023-01-11T12:35:26.989Z,3.70
2023-01-11T12:45:49.801Z,3.77
2023-01-11T12:56:28.818Z,4.57
2023-01-11T13:06:38.243Z,4.27
2023-01-11T13:16:45.610Z,4.13
2023-01-11T13:26:50.754Z,4.50
2023-01-11T13:36:59.134Z,4.13
2023-01-11T13:47:09.200Z,4.32
2023-01-11T13:57:19.774Z,4.50
2023-01-11T14:07:47.252Z,4.07
2023-01-11T14:18:00.834Z,5.07
2023-01-11T14:28:20.743Z,4.50
2023-01-11T14:38:28.200Z,4.85
2023-01-11T14:48:29.715Z,4.50
2023-01-11T14:58:32.574Z,5.23
2023-01-11T15:08:43.357Z,4.90
2023-01-11T15:18:46.235Z,5.77
2023-01-11T15:28:52.395Z,6.18
2023-01-11T15:39:02.844Z,5.67
2023-01-11T15:49:07.161Z,6.47
2023-01-11T15:59:14.658Z,7.32
2023-01-11T16:09:51.495Z,6.50
2023-01-11T16:19:55.106Z,8.45
2023-01-11T16:29:56.911Z,7.03
2023-01-11T16:40:22.227Z,5.87
2023-01-11T16:50:24.260Z,6.82
2023-01-11T17:00:33.757Z,7.43
2023-01-11T17:10:35.564Z,6.80
2023-01-11T17:20:37.157Z,8.17
2023-01-11T17:30:38.737Z,9.17
2023-01-11T17:40:41.103Z,7.75
2023-01-11T17:50:49.150Z,11.67
2023-01-11T18:01:15.791Z,8.82
2023-01-11T18:11:29.172Z,8.77
2023-01-11T18:21:36.444Z,9.03
2023-01-11T18:31:38.007Z,9.02
2023-01-11T18:41:39.625Z,8.93
2023-01-11T18:51:41.226Z,9.25
2023-01-11T19:01:56.416Z,9.47
2023-01-11T19:12:02.984Z,12.67
2023-01-11T19:22:05.648Z,13.77
2023-01-11T19:32:07.202Z,13.73
2023-01-11T19:42:08.743Z,11.40
2023-01-11T19:52:13.723Z,10.10
2023-01-11T20:02:18.885Z,11.07
2023-01-11T20:12:20.634Z,10.25
2023-01-11T20:22:23.839Z,10.47
2023-01-11T20:32:40.408Z,9.02
2023-01-11T20:42:42.797Z,9.10
2023-01-11T20:52:44.338Z,9.10
2023-01-11T21:02:49.250Z,10.25
2023-01-11T21:12:50.784Z,10.47
2023-01-11T21:22:52.327Z,11.32
2023-01-11T21:32:53.831Z,12.60
2023-01-11T21:42:55.419Z,11.63
2023-01-11T21:52:56.970Z,10.57
2023-01-11T22:02:58.488Z,11.83
2023-01-11T22:13:00.494Z,10.95
2023-01-11T22:23:02.045Z,10.67
2023-01-11T22:33:03.685Z,11.00
2023-01-11T22:43:05.221Z,10.88
2023-01-11T22:53:06.747Z,12.80
2023-01-11T23:03:08.432Z,13.15
2023-01-11T23:13:10.552Z,11.87
2023-01-11T23:23:12.119Z,12.73
2023-01-11T23:33:13.851Z,12.85
2023-01-11T23:43:15.379Z,14.43
2023-01-11T23:53:16.892Z,15.18
